Time;durP1;ratioP1;P1;durP2;ratioP2;P2;SDS_P1;SDS_P2;PMS_P1;PMS_P2;Temp;Humidity;BMP_temperature;BMP_pressure;BME280_temperature;BME280_humidity;BME280_pressure;Samples;Min_cycle;Max_cycle;Signal;HPM_P1;HPM_P2
2021/05/21 00:01:09;;;;;;;3.22;1.05;;;18.80;47.70;;;;;;6268722;28;20465;-82
2021/05/21 00:04:10;;;;;;;1.95;0.95;;;18.80;47.60;;;;;;6299394;28;20043;-82
2021/05/21 00:07:11;;;;;;;3.45;1.20;;;18.80;47.60;;;;;;6297328;28;20024;-82
2021/05/21 00:10:12;;;;;;;2.10;1.00;;;18.80;47.60;;;;;;6278090;28;20052;-83
2021/05/21 00:13:13;;;;;;;1.92;0.95;;;18.90;47.60;;;;;;6295831;28;20051;-82
2021/05/21 00:16:15;;;;;;;5.40;0.90;;;18.90;47.50;;;;;;6280143;28;20143;-81
2021/05/21 00:19:16;;;;;;;1.88;1.00;;;18.90;47.50;;;;;;6285039;28;20033;-82
2021/05/21 00:22:17;;;;;;;1.75;0.93;;;18.90;48.20;;;;;;6261631;28;20037;-82
2021/05/21 00:25:18;;;;;;;2.83;0.88;;;18.90;47.70;;;;;;6283704;28;20032;-82
2021/05/21 00:28:19;;;;;;;2.22;1.00;;;18.80;47.80;;;;;;6276574;28;20055;-82
2021/05/21 00:31:20;;;;;;;1.33;1.10;;;18.80;48.00;;;;;;6251125;28;20032;-82
2021/05/21 00:34:21;;;;;;;2.03;0.60;;;18.80;48.20;;;;;;6237309;28;20040;-82
2021/05/21 00:37:23;;;;;;;4.43;1.00;;;18.70;48.30;;;;;;6246218;28;20055;-82
2021/05/21 00:40:25;;;;;;;1.02;0.82;;;18.70;48.40;;;;;;6248085;28;20041;-82
2021/05/21 00:43:26;;;;;;;3.53;1.17;;;18.70;48.50;;;;;;6264498;28;20048;-81
2021/05/21 00:46:27;;;;;;;2.35;0.90;;;18.70;48.50;;;;;;6233332;28;20053;-81
2021/05/21 00:49:29;;;;;;;1.25;0.70;;;18.70;48.40;;;;;;6261786;28;20041;-81
2021/05/21 00:52:32;;;;;;;1.80;0.80;;;18.70;48.50;;;;;;6292116;28;20047;-81
2021/05/21 00:55:33;;;;;;;0.95;0.75;;;18.70;48.60;;;;;;6275523;28;20040;-82
2021/05/21 00:58:37;;;;;;;4.60;0.70;;;18.60;48.60;;;;;;6275704;28;20120;-81
2021/05/21 01:01:39;;;;;;;1.63;0.80;;;18.60;48.80;;;;;;6275379;28;20101;-81
2021/05/21 01:04:41;;;;;;;2.88;1.08;;;18.50;48.80;;;;;;6276510;28;20029;-81
2021/05/21 01:07:42;;;;;;;2.80;0.90;;;18.50;48.80;;;;;;6278891;28;20045;-81
2021/05/21 01:10:44;;;;;;;2.10;1.00;;;18.60;48.80;;;;;;6276829;28;20041;-81
2021/05/21 01:13:45;;;;;;;1.80;0.82;;;18.60;48.80;;;;;;6258525;28;20044;-82
2021/05/21 01:16:47;;;;;;;8.95;0.90;;;18.60;48.70;;;;;;6277630;28;20473;-83
2021/05/21 01:19:50;;;;;;;2.03;0.93;;;18.60;48.60;;;;;;6273977;28;20439;-82
2021/05/21 01:22:52;;;;;;;3.42;0.90;;;18.60;48.70;;;;;;6258531;28;20358;-82
2021/05/21 01:25:53;;;;;;;1.38;0.70;;;18.60;48.80;;;;;;6254183;28;20057;-82
2021/05/21 01:28:54;;;;;;;3.22;1.02;;;18.60;48.80;;;;;;6269969;28;20033;-83
2021/05/21 01:31:56;;;;;;;2.35;1.05;;;18.60;49.60;;;;;;6271077;28;20087;-82
2021/05/21 01:34:59;;;;;;;1.02;0.90;;;18.60;49.10;;;;;;6258332;28;20029;-83
2021/05/21 01:38:00;;;;;;;1.20;0.93;;;18.60;49.20;;;;;;6273637;28;20037;-83
2021/05/21 01:41:02;;;;;;;2.63;1.02;;;18.60;49.30;;;;;;6273633;28;20409;-83
2021/05/21 01:44:07;;;;;;;2.00;0.90;;;18.50;49.40;;;;;;6267485;28;20033;-81
2021/05/21 01:47:15;;;;;;;2.78;0.77;;;18.50;49.50;;;;;;6279969;28;20454;-81
2021/05/21 01:50:17;;;;;;;6.85;1.13;;;18.50;49.60;;;;;;6280024;28;20029;-82
2021/05/21 01:53:18;;;;;;;8.00;0.95;;;18.50;49.70;;;;;;6260903;28;20029;-82
2021/05/21 01:56:19;;;;;;;2.05;1.08;;;18.40;49.70;;;;;;6273561;28;20048;-82
2021/05/21 01:59:21;;;;;;;2.55;0.90;;;18.40;49.70;;;;;;6252957;28;20029;-82
2021/05/21 02:02:23;;;;;;;2.08;0.95;;;18.50;49.70;;;;;;6272818;28;20040;-82
2021/05/21 02:05:24;;;;;;;0.73;0.73;;;18.50;50.00;;;;;;6279686;28;20041;-82
2021/05/21 02:08:26;;;;;;;4.15;1.05;;;18.50;50.10;;;;;;6280134;28;20049;-82
2021/05/21 02:11:29;;;;;;;7.07;1.10;;;18.50;50.20;;;;;;6248005;28;20046;-81
2021/05/21 02:14:30;;;;;;;2.15;1.02;;;18.50;50.50;;;;;;6256868;28;20029;-81
2021/05/21 02:17:33;;;;;;;2.33;1.00;;;18.40;50.60;;;;;;6282508;28;20095;-82
2021/05/21 02:20:34;;;;;;;6.53;1.30;;;18.40;51.00;;;;;;6274701;28;20037;-82
2021/05/21 02:23:35;;;;;;;2.10;0.90;;;18.40;51.20;;;;;;6295685;28;20044;-82
2021/05/21 02:26:37;;;;;;;2.95;1.20;;;18.40;51.40;;;;;;6272586;28;20474;-81
2021/05/21 02:29:39;;;;;;;1.75;0.98;;;18.30;51.50;;;;;;6279673;28;20128;-81
2021/05/21 02:32:41;;;;;;;1.33;1.00;;;18.30;51.80;;;;;;6281370;28;20040;-82
2021/05/21 02:35:42;;;;;;;0.98;0.90;;;18.20;52.10;;;;;;6301144;28;20111;-81
2021/05/21 02:38:43;;;;;;;4.60;1.30;;;18.10;52.20;;;;;;6299262;28;20044;-82
2021/05/21 02:41:46;;;;;;;5.55;0.93;;;18.10;52.50;;;;;;6258183;28;20041;-81
2021/05/21 02:44:47;;;;;;;3.40;1.10;;;18.00;52.70;;;;;;6276009;28;20033;-82
2021/05/21 02:47:48;;;;;;;8.95;1.38;;;18.00;53.40;;;;;;6272785;28;20033;-82
2021/05/21 02:50:49;;;;;;;1.80;1.00;;;17.90;52.70;;;;;;6281201;28;20355;-82
2021/05/21 02:53:50;;;;;;;1.83;1.10;;;17.90;52.50;;;;;;6282929;28;20047;-82
2021/05/21 02:56:51;;;;;;;4.75;0.82;;;17.90;52.40;;;;;;6258607;28;20033;-81
2021/05/21 02:59:53;;;;;;;0.80;0.70;;;18.00;52.20;;;;;;6296111;28;20418;-81
2021/05/21 03:02:56;;;;;;;0.60;0.60;;;18.00;52.00;;;;;;6284781;28;20037;-82
2021/05/21 03:05:57;;;;;;;1.15;0.80;;;18.00;51.70;;;;;;6281838;28;20040;-82
2021/05/21 03:09:34;;;;;;;1.05;1.00;;;18.00;51.60;;;;;;6281016;28;20044;-82
2021/05/21 03:12:35;;;;;;;1.45;0.85;;;18.00;51.60;;;;;;6277939;28;20060;-81
2021/05/21 03:15:37;;;;;;;0.80;0.77;;;18.10;51.60;;;;;;6280568;28;20116;-81
2021/05/21 03:18:38;;;;;;;2.67;1.13;;;18.10;51.50;;;;;;6281581;28;20124;-82
2021/05/21 03:21:39;;;;;;;2.80;1.10;;;18.10;51.80;;;;;;6281752;28;20029;-81
2021/05/21 03:24:40;;;;;;;3.08;0.98;;;18.10;52.00;;;;;;6294141;28;20421;-82
2021/05/21 03:27:41;;;;;;;1.20;0.90;;;18.10;52.30;;;;;;6273866;28;20048;-82
2021/05/21 03:30:42;;;;;;;1.20;0.80;;;18.10;52.60;;;;;;6279941;28;20119;-82
2021/05/21 03:33:43;;;;;;;4.35;0.80;;;18.00;52.80;;;;;;6273415;28;20056;-83
2021/05/21 03:36:45;;;;;;;1.48;0.95;;;17.90;52.90;;;;;;6274657;28;20120;-82
2021/05/21 03:39:46;;;;;;;7.80;1.08;;;17.90;53.30;;;;;;6303272;28;20042;-81
2021/05/21 03:42:48;;;;;;;2.30;1.00;;;17.70;53.40;;;;;;6264450;28;20445;-82
2021/05/21 03:45:49;;;;;;;1.73;1.05;;;17.80;53.60;;;;;;6260640;28;20037;-81
2021/05/21 03:48:50;;;;;;;4.25;1.50;;;17.70;53.70;;;;;;6261436;28;20453;-83
2021/05/21 03:51:52;;;;;;;1.30;0.68;;;17.70;53.70;;;;;;6298347;28;20058;-81
2021/05/21 03:54:53;;;;;;;1.77;0.90;;;17.70;53.60;;;;;;6296604;28;20464;-82
2021/05/21 03:57:56;;;;;;;4.40;1.25;;;17.70;53.50;;;;;;6281201;28;20029;-81
2021/05/21 04:00:58;;;;;;;1.48;0.90;;;17.70;53.50;;;;;;6300482;28;20056;-80
2021/05/21 04:03:59;;;;;;;5.18;0.80;;;17.70;53.40;;;;;;6300111;28;20143;-82
2021/05/21 04:07:00;;;;;;;4.13;1.17;;;17.70;53.40;;;;;;6297733;28;20036;-82
2021/05/21 04:10:02;;;;;;;1.58;0.88;;;17.80;53.40;;;;;;6298169;28;20361;-82
2021/05/21 04:13:03;;;;;;;4.78;1.42;;;17.80;53.20;;;;;;6275172;28;20407;-82
2021/05/21 04:16:05;;;;;;;2.17;0.93;;;17.80;53.20;;;;;;6279332;28;20119;-81
2021/05/21 04:19:06;;;;;;;1.58;0.95;;;17.80;53.30;;;;;;6285145;28;20040;-81
2021/05/21 04:22:07;;;;;;;2.70;0.82;;;17.70;53.40;;;;;;6261239;28;20047;-81
2021/05/21 04:25:09;;;;;;;2.88;0.90;;;17.70;53.40;;;;;;6264450;28;20052;-81
2021/05/21 04:28:10;;;;;;;8.38;1.58;;;17.70;53.60;;;;;;6287708;28;20051;-81
2021/05/21 04:31:11;;;;;;;2.47;1.02;;;17.70;53.60;;;;;;6274645;28;20040;-81
2021/05/21 04:34:14;;;;;;;1.55;1.20;;;17.70;53.90;;;;;;6289028;28;20037;-81
2021/05/21 04:37:15;;;;;;;2.83;0.93;;;17.70;54.10;;;;;;6276184;28;20036;-81
2021/05/21 04:40:16;;;;;;;2.85;1.10;;;17.70;54.30;;;;;;6277921;28;20174;-81
2021/05/21 04:43:27;;;;;;;4.22;1.13;;;17.70;54.20;;;;;;6261669;28;20047;-81
2021/05/21 04:46:28;;;;;;;4.68;1.00;;;17.60;54.40;;;;;;6299941;28;20373;-81
2021/05/21 04:49:32;;;;;;;5.82;1.25;;;17.70;54.40;;;;;;6268897;28;20036;-81
2021/05/21 04:52:33;;;;;;;2.10;1.10;;;17.70;54.40;;;;;;6281842;28;20094;-82
2021/05/21 04:55:35;;;;;;;1.30;1.02;;;17.60;54.50;;;;;;6283770;28;20051;-82
2021/05/21 04:58:36;;;;;;;1.75;1.02;;;17.60;54.50;;;;;;6278484;28;20040;-82
2021/05/21 05:01:38;;;;;;;3.03;1.23;;;17.70;54.70;;;;;;6296930;28;20146;-81
2021/05/21 05:04:39;;;;;;;4.10;1.52;;;17.70;54.70;;;;;;6278443;28;20051;-82
2021/05/21 05:07:40;;;;;;;4.32;1.67;;;17.60;54.80;;;;;;6295687;28;20055;-81
2021/05/21 05:10:44;;;;;;;8.00;1.33;;;17.60;55.10;;;;;;6279270;28;20102;-81
2021/05/21 05:13:45;;;;;;;7.88;1.40;;;17.60;55.30;;;;;;6279704;28;20118;-81
2021/05/21 05:16:46;;;;;;;4.50;1.15;;;17.50;55.40;;;;;;6297317;28;20376;-81
2021/05/21 05:19:48;;;;;;;2.88;1.35;;;17.50;55.70;;;;;;6296785;28;20032;-82
2021/05/21 05:22:55;;;;;;;2.70;1.33;;;17.40;55.80;;;;;;6279232;28;20056;-81
2021/05/21 05:25:56;;;;;;;4.43;2.00;;;17.40;55.90;;;;;;6278255;28;20029;-82
2021/05/21 05:28:58;;;;;;;7.50;1.20;;;17.40;55.80;;;;;;6268803;28;20481;-82
2021/05/21 05:32:01;;;;;;;7.97;1.00;;;17.40;55.90;;;;;;6255615;28;20496;-81
2021/05/21 05:35:03;;;;;;;5.20;1.10;;;17.50;55.90;;;;;;6272275;28;20470;-82
2021/05/21 05:38:04;;;;;;;2.72;1.27;;;17.50;55.90;;;;;;6277319;28;20033;-81
2021/05/21 05:41:06;;;;;;;2.28;1.27;;;17.50;55.80;;;;;;6283087;28;20123;-81
2021/05/21 05:44:07;;;;;;;1.15;0.93;;;17.50;55.60;;;;;;6290470;28;20105;-80
2021/05/21 05:47:08;;;;;;;5.70;1.27;;;17.60;55.50;;;;;;6300079;28;20029;-81
2021/05/21 05:50:10;;;;;;;1.77;1.10;;;17.70;55.40;;;;;;6288888;28;20452;-82
2021/05/21 05:53:11;;;;;;;1.95;1.17;;;17.70;55.10;;;;;;6268745;28;20029;-82
2021/05/21 05:56:12;;;;;;;2.15;1.35;;;17.80;54.90;;;;;;6267473;28;20115;-82
2021/05/21 05:59:13;;;;;;;5.05;1.00;;;17.90;54.80;;;;;;6266769;28;20048;-83
2021/05/21 06:02:15;;;;;;;2.75;1.10;;;17.90;54.50;;;;;;6260322;28;20131;-82
2021/05/21 06:05:16;;;;;;;10.90;1.50;;;18.00;54.20;;;;;;6265576;28;20119;-82
2021/05/21 06:08:17;;;;;;;0.88;0.85;;;18.00;54.00;;;;;;6300233;28;20487;-82
2021/05/21 06:11:19;;;;;;;4.75;1.35;;;18.10;53.90;;;;;;6292261;28;20049;-82
2021/05/21 06:14:20;;;;;;;2.17;1.10;;;18.10;53.70;;;;;;6269579;28;20078;-81
2021/05/21 06:17:21;;;;;;;4.35;1.00;;;18.20;53.60;;;;;;6274996;28;20041;-82
2021/05/21 06:20:23;;;;;;;2.95;1.20;;;18.30;53.30;;;;;;6270394;28;20487;-83
2021/05/21 06:23:24;;;;;;;4.65;1.83;;;18.40;53.10;;;;;;6267424;28;20073;-81
2021/05/21 06:29:30;;;;;;;1.42;1.05;;;18.60;52.40;;;;;;6291626;28;20033;-82
2021/05/21 06:32:31;;;;;;;3.28;1.23;;;18.70;52.10;;;;;;6264430;28;20047;-83
2021/05/21 06:35:35;;;;;;;4.10;1.83;;;18.80;51.80;;;;;;6276431;28;20067;-82
2021/05/21 06:38:38;;;;;;;2.90;1.48;;;18.90;51.60;;;;;;6267798;28;20052;-82
2021/05/21 06:41:39;;;;;;;3.70;1.10;;;18.90;51.40;;;;;;6277248;28;20089;-82
2021/05/21 06:44:40;;;;;;;6.80;1.30;;;19.00;51.10;;;;;;6287881;28;20028;-83
2021/05/21 06:47:41;;;;;;;2.97;1.20;;;19.10;51.00;;;;;;6275289;28;20043;-82
2021/05/21 06:50:43;;;;;;;1.90;1.10;;;19.20;50.90;;;;;;6273302;28;20056;-82
2021/05/21 06:53:44;;;;;;;2.92;1.17;;;19.30;50.70;;;;;;6289037;28;20109;-82
2021/05/21 06:56:48;;;;;;;10.52;1.70;;;19.40;50.10;;;;;;6279615;28;20047;-83
2021/05/21 06:59:50;;;;;;;4.40;1.30;;;19.50;49.70;;;;;;6299098;28;20028;-83
2021/05/21 07:02:51;;;;;;;6.07;1.10;;;19.60;49.50;;;;;;6297184;28;20117;-82
2021/05/21 07:05:52;;;;;;;5.35;1.27;;;19.70;49.40;;;;;;6299101;28;20036;-83
2021/05/21 07:08:53;;;;;;;4.25;1.13;;;19.90;48.80;;;;;;6298145;28;20033;-82
2021/05/21 07:11:55;;;;;;;2.65;1.17;;;20.10;48.50;;;;;;6268436;28;20037;-82
2021/05/21 07:14:56;;;;;;;2.67;1.27;;;20.40;48.40;;;;;;6238954;28;20481;-82
2021/05/21 07:17:57;;;;;;;1.90;1.20;;;20.60;47.70;;;;;;6274476;28;20056;-82
2021/05/21 07:21:02;;;;;;;3.13;1.10;;;20.70;47.10;;;;;;6274880;28;20040;-82
2021/05/21 07:24:06;;;;;;;13.55;1.00;;;20.80;46.90;;;;;;6257409;28;20049;-82
2021/05/21 07:27:07;;;;;;;2.03;1.17;;;20.80;46.50;;;;;;6283597;28;20108;-82
2021/05/21 07:30:09;;;;;;;1.73;1.10;;;20.90;46.10;;;;;;6285992;28;20106;-82
2021/05/21 07:33:10;;;;;;;10.00;1.67;;;20.90;45.70;;;;;;6280702;28;20052;-82
2021/05/21 07:36:11;;;;;;;2.28;1.17;;;21.00;45.60;;;;;;6297656;28;20373;-82
2021/05/21 07:39:14;;;;;;;3.78;1.10;;;21.10;45.40;;;;;;6285886;28;20123;-82
2021/05/21 07:42:15;;;;;;;7.60;1.20;;;21.30;45.20;;;;;;6298118;28;20028;-81
2021/05/21 07:45:17;;;;;;;8.20;1.40;;;21.50;44.80;;;;;;6279675;28;20036;-83
2021/05/21 07:48:18;;;;;;;3.50;1.10;;;21.70;44.60;;;;;;6277265;28;20029;-83
2021/05/21 07:51:20;;;;;;;2.17;1.25;;;21.90;44.40;;;;;;6280359;28;20040;-83
2021/05/21 07:54:22;;;;;;;5.10;1.23;;;21.90;44.10;;;;;;6265324;28;20035;-82
2021/05/21 07:57:24;;;;;;;4.75;1.00;;;22.10;44.00;;;;;;6266311;28;20048;-82
2021/05/21 08:00:25;;;;;;;1.52;0.82;;;22.20;43.80;;;;;;6273667;28;20029;-83
2021/05/21 08:03:27;;;;;;;1.65;0.98;;;22.20;43.70;;;;;;6245913;28;20067;-83
2021/05/21 08:06:29;;;;;;;2.45;0.98;;;22.10;43.50;;;;;;6261204;28;20041;-82
2021/05/21 08:09:36;;;;;;;1.85;0.93;;;22.00;43.60;;;;;;6273724;28;20433;-82
2021/05/21 08:12:37;;;;;;;3.75;1.15;;;22.10;43.40;;;;;;6298132;28;20501;-82
2021/05/21 08:15:38;;;;;;;4.93;1.38;;;22.20;43.30;;;;;;6298128;28;20090;-81
2021/05/21 08:18:40;;;;;;;3.92;1.30;;;22.30;43.30;;;;;;6295328;28;20041;-81
2021/05/21 08:21:41;;;;;;;4.15;1.73;;;22.40;43.50;;;;;;6276031;28;20033;-82
2021/05/21 08:24:42;;;;;;;4.38;2.03;;;22.50;43.50;;;;;;6278797;28;20053;-82
2021/05/21 08:27:43;;;;;;;17.55;2.20;;;22.60;43.40;;;;;;6293771;28;20111;-82
2021/05/21 08:30:45;;;;;;;4.40;1.30;;;22.70;43.50;;;;;;6277547;28;20064;-82
2021/05/21 08:33:49;;;;;;;9.38;2.00;;;22.80;43.20;;;;;;6279049;28;20040;-82
2021/05/21 08:36:50;;;;;;;5.85;0.95;;;22.90;42.80;;;;;;6294613;28;20105;-81
2021/05/21 08:39:52;;;;;;;2.55;0.75;;;23.10;41.40;;;;;;6295754;28;20442;-82
2021/05/21 08:42:59;;;;;;;3.50;0.90;;;23.40;40.40;;;;;;6286052;28;20599;-82
2021/05/21 08:46:00;;;;;;;7.55;1.10;;;23.70;39.80;;;;;;6279055;28;20215;-83
2021/05/21 08:49:02;;;;;;;0.82;0.73;;;23.80;39.10;;;;;;6269300;28;20071;-82
2021/05/21 08:52:04;;;;;;;3.00;1.30;;;24.00;38.30;;;;;;6273195;28;20112;-82
2021/05/21 08:55:06;;;;;;;4.97;1.63;;;24.10;37.90;;;;;;6259935;28;20116;-83
2021/05/21 08:58:12;;;;;;;5.10;1.27;;;24.10;38.70;;;;;;6272035;28;20063;-82
2021/05/21 09:01:17;;;;;;;2.40;1.10;;;24.10;39.00;;;;;;6259944;28;20112;-82
2021/05/21 09:04:19;;;;;;;1.55;1.10;;;24.00;39.00;;;;;;6278837;28;20032;-81
2021/05/21 09:07:25;;;;;;;6.85;1.40;;;23.90;39.10;;;;;;6288230;28;20060;-82
2021/05/21 09:10:27;;;;;;;9.88;1.40;;;23.70;39.10;;;;;;6282873;28;20090;-83
2021/05/21 09:13:35;;;;;;;2.72;1.10;;;23.50;39.00;;;;;;6275488;28;20116;-83
2021/05/21 09:16:38;;;;;;;5.43;0.90;;;23.30;39.00;;;;;;6282926;28;20032;-82
2021/05/21 09:19:46;;;;;;;2.67;0.90;;;23.20;38.10;;;;;;6284778;28;20510;-83
2021/05/21 09:23:01;;;;;;;2.97;1.00;;;23.10;38.10;;;;;;6283631;28;20032;-81
2021/05/21 09:26:02;;;;;;;1.92;0.93;;;23.00;38.20;;;;;;6281928;28;20262;-82
2021/05/21 09:29:04;;;;;;;9.32;1.55;;;22.90;38.50;;;;;;6284853;28;20032;-82
2021/05/21 09:32:34;;;;;;;2.58;1.00;;;22.90;38.80;;;;;;6264051;28;20080;-81
2021/05/21 09:35:36;;;;;;;4.45;1.10;;;22.70;39.30;;;;;;6200926;28;20066;-81
2021/05/21 09:38:51;;;;;;;2.78;1.13;;;22.90;39.60;;;;;;6196076;28;20116;-81
2021/05/21 09:41:55;;;;;;;3.30;1.05;;;23.00;39.80;;;;;;6206273;28;20049;-81
2021/05/21 09:45:18;;;;;;;4.43;1.00;;;23.10;39.40;;;;;;6177841;28;20038;-82
2021/05/21 09:48:20;;;;;;;4.43;1.35;;;23.30;39.40;;;;;;6165713;28;20490;-81
2021/05/21 09:51:23;;;;;;;8.05;1.15;;;23.40;39.10;;;;;;6183835;28;20030;-82
2021/05/21 09:54:26;;;;;;;5.03;1.20;;;23.30;39.00;;;;;;6199764;28;20070;-83
2021/05/21 09:57:35;;;;;;;2.20;1.00;;;23.40;39.10;;;;;;6199286;28;20057;-82
2021/05/21 10:00:36;;;;;;;2.72;1.05;;;23.30;39.20;;;;;;6154425;28;20050;-82
2021/05/21 10:03:40;;;;;;;8.77;1.00;;;23.10;38.90;;;;;;6180189;28;20124;-82
2021/05/21 10:06:45;;;;;;;4.03;1.25;;;23.00;39.00;;;;;;6158405;28;20039;-82
2021/05/21 10:09:46;;;;;;;8.65;1.67;;;23.00;39.20;;;;;;6182382;28;20042;-82
2021/05/21 10:12:49;;;;;;;2.45;1.02;;;23.00;39.20;;;;;;6270913;28;20032;-81
2021/05/21 10:15:51;;;;;;;1.05;0.80;;;23.20;39.30;;;;;;6299111;28;20032;-81
2021/05/21 10:18:53;;;;;;;6.25;0.80;;;23.30;37.80;;;;;;6297516;28;20044;-82
2021/05/21 10:21:56;;;;;;;2.33;0.95;;;23.60;37.30;;;;;;6295998;28;20056;-81
2021/05/21 10:25:36;;;;;;;8.65;0.75;;;23.90;36.70;;;;;;6279449;28;20044;-82
2021/05/21 10:28:41;;;;;;;3.72;0.80;;;24.10;36.50;;;;;;6202548;28;20183;-80
2021/05/21 10:31:42;;;;;;;4.20;1.10;;;24.50;36.30;;;;;;6218285;28;20121;-81
2021/05/21 10:34:48;;;;;;;4.38;0.93;;;24.80;36.00;;;;;;6185173;28;20034;-80
2021/05/21 10:38:19;;;;;;;2.58;1.15;;;25.10;35.60;;;;;;6195871;28;20351;-81
2021/05/21 10:41:49;;;;;;;0.80;0.63;;;25.40;34.40;;;;;;6210917;28;20049;-82
2021/05/21 10:44:51;;;;;;;0.85;0.60;;;25.60;33.50;;;;;;6168233;28;20363;-81
2021/05/21 10:48:00;;;;;;;2.83;0.73;;;25.60;32.70;;;;;;6191489;28;20410;-82
2021/05/21 10:51:11;;;;;;;1.52;0.82;;;25.50;32.60;;;;;;6196085;28;20041;-83
2021/05/21 10:54:35;;;;;;;3.67;1.00;;;25.30;32.80;;;;;;6205335;28;20033;-80
2021/05/21 10:57:36;;;;;;;0.50;0.43;;;25.20;32.80;;;;;;6208614;28;20107;-81
2021/05/21 11:00:41;;;;;;;2.88;0.90;;;25.20;32.40;;;;;;6205676;28;20454;-80
2021/05/21 11:04:06;;;;;;;2.72;0.60;;;25.40;31.40;;;;;;6235310;28;20036;-81
2021/05/21 11:07:07;;;;;;;2.03;1.00;;;25.40;31.10;;;;;;6297872;28;20020;-80
2021/05/21 11:10:43;;;;;;;3.72;0.95;;;25.30;31.10;;;;;;6279228;28;20032;-80
2021/05/21 11:14:04;;;;;;;5.50;0.80;;;25.00;31.70;;;;;;6272914;28;20044;-81
2021/05/21 11:17:25;;;;;;;5.40;1.13;;;24.80;31.70;;;;;;6291708;28;20047;-81
2021/05/21 11:20:26;;;;;;;5.88;0.93;;;24.50;31.90;;;;;;6279344;28;20052;-80
2021/05/21 11:23:45;;;;;;;1.95;0.80;;;24.60;32.10;;;;;;6292777;28;20040;-80
2021/05/21 11:26:46;;;;;;;2.25;1.00;;;24.60;31.90;;;;;;6267512;28;20032;-81
2021/05/21 11:29:53;;;;;;;2.55;1.15;;;24.50;32.00;;;;;;6269624;28;20037;-80
2021/05/21 11:32:55;;;;;;;0.80;0.60;;;24.40;32.30;;;;;;6254776;28;20055;-80
2021/05/21 11:35:57;;;;;;;0.85;0.60;;;24.40;32.60;;;;;;6276839;28;20040;-80
2021/05/21 11:38:59;;;;;;;1.80;0.65;;;24.30;32.80;;;;;;6292647;28;20033;-80
2021/05/21 11:42:04;;;;;;;3.33;0.57;;;24.30;32.80;;;;;;6282238;28;20334;-80
2021/05/21 11:45:07;;;;;;;2.47;0.90;;;24.60;32.70;;;;;;6284252;28;20137;-80
2021/05/21 11:48:09;;;;;;;1.00;0.68;;;25.10;32.20;;;;;;6255200;28;20051;-80
2021/05/21 11:51:16;;;;;;;1.48;0.50;;;25.90;31.70;;;;;;6245008;28;20036;-81
2021/05/21 11:54:17;;;;;;;0.65;0.65;;;26.30;30.60;;;;;;6295497;28;20040;-80
2021/05/21 11:57:20;;;;;;;1.20;0.73;;;26.40;30.30;;;;;;6278708;28;20041;-80
2021/05/21 12:00:26;;;;;;;2.03;0.70;;;26.60;30.00;;;;;;6282987;28;20037;-79
2021/05/21 12:03:40;;;;;;;1.30;0.82;;;26.90;29.80;;;;;;6279869;28;20050;-81
2021/05/21 12:06:47;;;;;;;6.57;1.05;;;26.80;29.70;;;;;;6279128;28;20036;-80
2021/05/21 12:09:59;;;;;;;4.43;0.68;;;26.90;29.60;;;;;;6278518;28;20043;-80
2021/05/21 12:13:10;;;;;;;1.27;0.45;;;27.00;29.50;;;;;;6268490;28;20041;-79
2021/05/21 12:16:19;;;;;;;3.22;0.68;;;27.30;29.20;;;;;;6266033;28;20091;-79
2021/05/21 12:19:41;;;;;;;4.57;0.90;;;27.30;28.90;;;;;;6292156;28;20102;-80
2021/05/21 12:23:06;;;;;;;4.90;1.60;;;27.00;29.10;;;;;;6271846;28;20070;-82
2021/05/21 12:26:10;;;;;;;1.65;0.50;;;26.80;29.30;;;;;;6277283;28;20033;-80
2021/05/21 12:29:15;;;;;;;3.90;0.77;;;27.10;29.20;;;;;;6258929;28;20039;-81
2021/05/21 12:32:18;;;;;;;3.95;0.80;;;27.20;28.80;;;;;;6256618;28;20374;-81
2021/05/21 12:35:34;;;;;;;1.35;0.77;;;27.50;28.90;;;;;;6228440;28;20112;-82
2021/05/21 12:38:39;;;;;;;1.63;0.60;;;28.00;28.20;;;;;;6227464;28;20134;-81
2021/05/21 12:41:42;;;;;;;0.63;0.60;;;28.20;27.90;;;;;;6268943;28;20123;-80
2021/05/21 12:44:50;;;;;;;3.08;0.90;;;27.80;27.90;;;;;;6261351;28;20051;-81
2021/05/21 12:47:53;;;;;;;1.58;0.70;;;27.20;28.30;;;;;;6283345;28;20481;-80
2021/05/21 12:50:54;;;;;;;1.92;0.63;;;26.80;28.80;;;;;;6282265;28;20086;-81
2021/05/21 12:54:28;;;;;;;6.28;0.80;;;26.60;29.10;;;;;;6272066;28;20055;-79
2021/05/21 12:57:34;;;;;;;1.63;0.70;;;26.60;29.20;;;;;;6293775;28;20044;-80
2021/05/21 13:00:39;;;;;;;0.98;0.52;;;26.70;29.10;;;;;;6262961;28;20458;-80
2021/05/21 13:03:56;;;;;;;1.85;0.73;;;26.50;29.30;;;;;;6272579;28;20377;-81
2021/05/21 13:06:59;;;;;;;1.05;0.80;;;26.30;29.60;;;;;;6295954;28;20112;-80
2021/05/21 13:10:03;;;;;;;1.08;0.60;;;26.10;29.90;;;;;;6284024;28;20148;-80
2021/05/21 13:13:05;;;;;;;6.13;0.90;;;26.10;30.00;;;;;;6278952;28;20048;-81
2021/05/21 13:16:06;;;;;;;2.40;0.60;;;26.00;30.00;;;;;;6293902;28;20035;-81
2021/05/21 13:19:07;;;;;;;6.10;0.93;;;26.40;29.90;;;;;;6296218;28;20283;-80
2021/05/21 13:22:15;;;;;;;7.78;0.80;;;26.30;29.90;;;;;;6259618;28;20039;-80
2021/05/21 13:25:17;;;;;;;2.05;0.68;;;26.00;30.20;;;;;;6289037;28;20441;-80
2021/05/21 13:28:19;;;;;;;2.33;0.80;;;25.90;30.60;;;;;;6294537;28;20040;-80
2021/05/21 13:31:20;;;;;;;4.25;0.60;;;25.80;30.80;;;;;;6275042;28;20037;-80
2021/05/21 13:34:21;;;;;;;1.70;1.00;;;25.60;31.00;;;;;;6254131;28;20036;-81
2021/05/21 13:37:22;;;;;;;2.22;0.73;;;25.50;31.20;;;;;;6262876;28;20049;-80
2021/05/21 13:40:24;;;;;;;4.18;0.77;;;25.30;31.40;;;;;;6249360;28;20444;-81
2021/05/21 13:43:25;;;;;;;1.50;0.77;;;25.10;31.70;;;;;;6286273;28;20040;-82
2021/05/21 13:46:26;;;;;;;0.65;0.50;;;25.10;31.90;;;;;;6280298;28;20045;-81
2021/05/21 13:49:31;;;;;;;5.28;0.73;;;25.10;31.70;;;;;;6289465;28;20056;-81
2021/05/21 13:52:32;;;;;;;5.90;0.95;;;25.10;31.80;;;;;;6275041;28;20119;-81
2021/05/21 13:55:35;;;;;;;1.95;1.02;;;25.10;32.10;;;;;;6287002;28;20033;-81
2021/05/21 13:58:36;;;;;;;6.20;0.90;;;25.00;32.30;;;;;;6296459;28;20205;-81
2021/05/21 14:01:38;;;;;;;2.35;0.90;;;25.10;32.30;;;;;;6285124;28;20032;-81
2021/05/21 14:04:40;;;;;;;1.13;0.68;;;25.10;32.30;;;;;;6280861;28;20094;-81
2021/05/21 14:07:41;;;;;;;3.40;0.95;;;25.10;32.40;;;;;;6296404;28;20055;-81
2021/05/21 14:10:42;;;;;;;5.45;1.40;;;25.00;32.50;;;;;;6279383;28;20458;-81
2021/05/21 14:13:44;;;;;;;2.80;0.93;;;25.00;32.80;;;;;;6285884;28;20442;-81
2021/05/21 14:16:45;;;;;;;9.45;1.17;;;25.10;33.00;;;;;;6270304;28;20033;-81
2021/05/21 14:19:47;;;;;;;6.32;0.80;;;25.10;33.00;;;;;;6274431;28;20032;-80
2021/05/21 14:22:50;;;;;;;2.50;0.82;;;25.10;33.00;;;;;;6230042;28;20090;-79
2021/05/21 14:25:52;;;;;;;0.80;0.80;;;25.00;33.30;;;;;;6293398;28;20097;-81
2021/05/21 14:28:53;;;;;;;4.32;0.80;;;24.90;33.70;;;;;;6289261;28;20029;-81
2021/05/21 14:31:54;;;;;;;3.95;1.13;;;24.70;34.00;;;;;;6263626;28;20124;-80
2021/05/21 14:34:55;;;;;;;3.13;1.00;;;24.60;34.20;;;;;;6246327;28;20460;-82
2021/05/21 14:37:57;;;;;;;1.60;0.90;;;24.60;34.30;;;;;;6246093;28;20063;-80
2021/05/21 14:40:59;;;;;;;4.40;1.00;;;24.50;34.50;;;;;;6240333;28;20339;-81
2021/05/21 14:44:01;;;;;;;4.82;1.25;;;24.50;34.70;;;;;;6280727;28;20032;-80
2021/05/21 14:47:02;;;;;;;3.15;0.80;;;24.40;35.10;;;;;;6291746;28;20359;-80
2021/05/21 14:50:08;;;;;;;7.13;0.93;;;24.10;36.90;;;;;;6268586;28;20059;-79
2021/05/21 14:53:10;;;;;;;5.38;1.20;;;23.70;38.10;;;;;;6271952;28;20374;-80
2021/05/21 14:56:12;;;;;;;7.82;1.10;;;23.50;40.20;;;;;;6294814;28;20032;-80
2021/05/21 14:59:13;;;;;;;6.78;1.33;;;23.30;40.50;;;;;;6258747;28;20051;-81
2021/05/21 15:02:18;;;;;;;6.65;1.40;;;23.30;41.30;;;;;;6268056;28;20040;-80
2021/05/21 15:05:19;;;;;;;7.93;1.13;;;23.30;41.30;;;;;;6295813;28;20127;-80
2021/05/21 15:08:21;;;;;;;3.70;1.35;;;23.40;41.20;;;;;;6296298;28;20088;-81
2021/05/21 15:11:26;;;;;;;1.95;0.80;;;23.40;40.60;;;;;;6273223;28;20036;-81
2021/05/21 15:14:28;;;;;;;3.05;1.20;;;23.50;40.60;;;;;;6268252;28;20047;-80
2021/05/21 15:17:49;;;;;;;;;;;;;;;;;;;;;
2021/05/21 15:27:08;;;;;;;4.63;1.40;;;23.70;40.20;;;;;;6269894;28;20033;-80
2021/05/21 15:30:10;;;;;;;9.68;2.08;;;23.80;40.30;;;;;;6272001;28;20155;-81
2021/05/21 15:33:11;;;;;;;4.38;1.40;;;23.90;40.60;;;;;;6273428;28;20043;-80
2021/05/21 15:36:13;;;;;;;3.17;1.23;;;23.90;41.00;;;;;;6262161;28;20477;-81
2021/05/21 15:39:14;;;;;;;2.83;1.35;;;24.00;41.10;;;;;;6286030;28;20040;-83
2021/05/21 15:45:26;;;;;;;4.88;2.75;;;24.10;41.10;;;;;;6285702;28;20028;-80
2021/05/21 15:48:34;;;;;;;21.67;11.13;;;24.10;41.80;;;;;;6283676;28;20295;-78
2021/05/21 15:54:43;;;;;;;7.30;2.90;;;24.20;41.70;;;;;;6271301;28;20119;-78
2021/05/21 15:58:03;;;;;;;6.63;1.83;;;24.30;41.30;;;;;;6275144;28;20045;-79
2021/05/21 16:01:04;;;;;;;5.13;2.13;;;24.30;41.20;;;;;;6254187;28;20056;-78
2021/05/21 16:04:06;;;;;;;3.67;1.45;;;24.40;41.00;;;;;;6254992;28;20119;-79
2021/05/21 16:07:08;;;;;;;2.45;1.30;;;24.50;40.80;;;;;;6268781;28;20109;-78
2021/05/21 16:10:12;;;;;;;4.97;1.30;;;24.50;40.60;;;;;;6251106;28;20100;-78
2021/05/21 16:13:13;;;;;;;9.50;2.63;;;24.50;40.30;;;;;;6294841;28;20044;-78